sensor_id;sensor_type;location;lat;lon;timestamp;P1;durP1;ratioP1;P2;durP2;ratioP2
23304;SDS011;11821;51.456;8.844;2024-02-21T00:01:15;12.48;;;6.43;;
23304;SDS011;11821;51.456;8.844;2024-02-21T00:03:42;16.48;;;5.47;;
23304;SDS011;11821;51.456;8.844;2024-02-21T00:06:08;11.63;;;5.90;;
23304;SDS011;11821;51.456;8.844;2024-02-21T00:08:35;21.27;;;7.90;;
23304;SDS011;11821;51.456;8.844;2024-02-21T00:11:01;16.40;;;6.57;;
23304;SDS011;11821;51.456;8.844;2024-02-21T00:13:28;15.68;;;7.47;;
23304;SDS011;11821;51.456;8.844;2024-02-21T00:15:55;21.35;;;7.95;;
23304;SDS011;11821;51.456;8.844;2024-02-21T00:18:22;19.67;;;7.28;;
23304;SDS011;11821;51.456;8.844;2024-02-21T00:20:48;25.80;;;7.65;;
23304;SDS011;11821;51.456;8.844;2024-02-21T00:23:15;18.33;;;7.20;;
23304;SDS011;11821;51.456;8.844;2024-02-21T00:25:41;18.60;;;8.20;;
23304;SDS011;11821;51.456;8.844;2024-02-21T00:28:08;16.48;;;7.43;;
23304;SDS011;11821;51.456;8.844;2024-02-21T00:30:35;18.30;;;7.90;;
23304;SDS011;11821;51.456;8.844;2024-02-21T00:33:03;23.15;;;8.43;;
23304;SDS011;11821;51.456;8.844;2024-02-21T00:35:30;23.02;;;8.13;;
23304;SDS011;11821;51.456;8.844;2024-02-21T00:37:57;14.20;;;7.68;;
23304;SDS011;11821;51.456;8.844;2024-02-21T00:40:25;18.40;;;8.05;;
23304;SDS011;11821;51.456;8.844;2024-02-21T00:42:51;26.95;;;9.18;;
23304;SDS011;11821;51.456;8.844;2024-02-21T00:45:18;25.75;;;9.13;;
23304;SDS011;11821;51.456;8.844;2024-02-21T00:47:44;16.60;;;8.32;;
23304;SDS011;11821;51.456;8.844;2024-02-21T00:50:11;17.10;;;7.93;;
23304;SDS011;11821;51.456;8.844;2024-02-21T00:52:38;21.15;;;8.25;;
23304;SDS011;11821;51.456;8.844;2024-02-21T00:55:04;16.80;;;7.80;;
23304;SDS011;11821;51.456;8.844;2024-02-21T00:57:31;19.73;;;9.55;;
23304;SDS011;11821;51.456;8.844;2024-02-21T00:59:57;22.38;;;8.25;;
23304;SDS011;11821;51.456;8.844;2024-02-21T01:02:24;18.25;;;8.50;;
23304;SDS011;11821;51.456;8.844;2024-02-21T01:04:50;21.02;;;9.57;;
23304;SDS011;11821;51.456;8.844;2024-02-21T01:07:17;23.85;;;9.40;;
23304;SDS011;11821;51.456;8.844;2024-02-21T01:09:43;20.98;;;9.13;;
23304;SDS011;11821;51.456;8.844;2024-02-21T01:12:10;18.95;;;9.10;;
23304;SDS011;11821;51.456;8.844;2024-02-21T01:14:36;16.63;;;8.35;;
23304;SDS011;11821;51.456;8.844;2024-02-21T01:17:03;22.30;;;9.55;;
23304;SDS011;11821;51.456;8.844;2024-02-21T01:19:31;24.67;;;8.48;;
23304;SDS011;11821;51.456;8.844;2024-02-21T01:21:58;27.77;;;10.07;;
23304;SDS011;11821;51.456;8.844;2024-02-21T01:24:24;18.13;;;8.30;;
23304;SDS011;11821;51.456;8.844;2024-02-21T01:26:51;24.90;;;8.43;;
23304;SDS011;11821;51.456;8.844;2024-02-21T01:29:17;22.40;;;8.60;;
23304;SDS011;11821;51.456;8.844;2024-02-21T01:31:44;15.18;;;7.53;;
23304;SDS011;11821;51.456;8.844;2024-02-21T01:34:11;18.63;;;7.55;;
23304;SDS011;11821;51.456;8.844;2024-02-21T01:36:37;20.13;;;9.15;;
23304;SDS011;11821;51.456;8.844;2024-02-21T01:39:04;16.05;;;9.48;;
23304;SDS011;11821;51.456;8.844;2024-02-21T01:41:30;21.77;;;8.45;;
23304;SDS011;11821;51.456;8.844;2024-02-21T01:43:57;18.98;;;8.70;;
23304;SDS011;11821;51.456;8.844;2024-02-21T01:46:24;15.88;;;8.25;;
23304;SDS011;11821;51.456;8.844;2024-02-21T01:48:56;22.63;;;8.38;;
23304;SDS011;11821;51.456;8.844;2024-02-21T01:51:23;21.13;;;8.95;;
23304;SDS011;11821;51.456;8.844;2024-02-21T01:53:51;19.58;;;9.02;;
23304;SDS011;11821;51.456;8.844;2024-02-21T01:56:18;18.40;;;7.57;;
23304;SDS011;11821;51.456;8.844;2024-02-21T01:58:44;17.98;;;7.82;;
23304;SDS011;11821;51.456;8.844;2024-02-21T02:01:12;16.55;;;7.75;;
23304;SDS011;11821;51.456;8.844;2024-02-21T02:03:38;23.90;;;7.95;;
23304;SDS011;11821;51.456;8.844;2024-02-21T02:06:05;18.70;;;7.35;;
23304;SDS011;11821;51.456;8.844;2024-02-21T02:08:32;14.35;;;7.43;;
23304;SDS011;11821;51.456;8.844;2024-02-21T02:10:59;20.88;;;7.68;;
23304;SDS011;11821;51.456;8.844;2024-02-21T02:13:26;16.00;;;6.45;;
23304;SDS011;11821;51.456;8.844;2024-02-21T02:15:52;13.88;;;8.00;;
23304;SDS011;11821;51.456;8.844;2024-02-21T02:18:19;14.73;;;7.10;;
23304;SDS011;11821;51.456;8.844;2024-02-21T02:20:46;13.77;;;6.90;;
23304;SDS011;11821;51.456;8.844;2024-02-21T02:25:51;20.55;;;6.93;;
23304;SDS011;11821;51.456;8.844;2024-02-21T02:28:18;16.17;;;6.93;;
23304;SDS011;11821;51.456;8.844;2024-02-21T02:30:45;14.43;;;7.93;;
23304;SDS011;11821;51.456;8.844;2024-02-21T02:33:11;11.35;;;6.22;;
23304;SDS011;11821;51.456;8.844;2024-02-21T02:35:38;18.63;;;6.85;;
23304;SDS011;11821;51.456;8.844;2024-02-21T02:38:05;13.15;;;6.93;;
23304;SDS011;11821;51.456;8.844;2024-02-21T02:40:33;14.40;;;6.95;;
23304;SDS011;11821;51.456;8.844;2024-02-21T02:42:59;11.88;;;6.57;;
23304;SDS011;11821;51.456;8.844;2024-02-21T02:45:26;18.60;;;7.35;;
23304;SDS011;11821;51.456;8.844;2024-02-21T02:47:53;14.20;;;7.18;;
23304;SDS011;11821;51.456;8.844;2024-02-21T02:50:19;16.23;;;7.13;;
23304;SDS011;11821;51.456;8.844;2024-02-21T02:52:46;14.52;;;6.53;;
23304;SDS011;11821;51.456;8.844;2024-02-21T02:55:13;14.32;;;6.38;;
23304;SDS011;11821;51.456;8.844;2024-02-21T02:57:39;15.07;;;6.55;;
23304;SDS011;11821;51.456;8.844;2024-02-21T03:00:10;14.98;;;7.13;;
23304;SDS011;11821;51.456;8.844;2024-02-21T03:02:37;14.65;;;7.15;;
23304;SDS011;11821;51.456;8.844;2024-02-21T03:05:11;12.40;;;6.88;;
23304;SDS011;11821;51.456;8.844;2024-02-21T03:07:38;12.38;;;6.22;;
23304;SDS011;11821;51.456;8.844;2024-02-21T03:10:04;11.95;;;6.32;;
23304;SDS011;11821;51.456;8.844;2024-02-21T03:12:31;14.25;;;7.15;;
23304;SDS011;11821;51.456;8.844;2024-02-21T03:14:57;12.70;;;7.15;;
23304;SDS011;11821;51.456;8.844;2024-02-21T03:17:24;13.27;;;6.85;;
23304;SDS011;11821;51.456;8.844;2024-02-21T03:19:52;14.77;;;7.65;;
23304;SDS011;11821;51.456;8.844;2024-02-21T03:22:21;12.07;;;7.00;;
23304;SDS011;11821;51.456;8.844;2024-02-21T03:24:48;15.93;;;7.18;;
23304;SDS011;11821;51.456;8.844;2024-02-21T03:27:14;25.77;;;8.70;;
23304;SDS011;11821;51.456;8.844;2024-02-21T03:29:41;17.02;;;6.00;;
23304;SDS011;11821;51.456;8.844;2024-02-21T03:32:07;16.20;;;7.07;;
23304;SDS011;11821;51.456;8.844;2024-02-21T03:34:34;15.65;;;7.25;;
23304;SDS011;11821;51.456;8.844;2024-02-21T03:37:00;14.35;;;7.47;;
23304;SDS011;11821;51.456;8.844;2024-02-21T03:39:27;17.75;;;6.72;;
23304;SDS011;11821;51.456;8.844;2024-02-21T03:41:57;16.20;;;7.82;;
23304;SDS011;11821;51.456;8.844;2024-02-21T03:44:26;14.57;;;7.05;;
23304;SDS011;11821;51.456;8.844;2024-02-21T03:46:52;10.90;;;6.00;;
23304;SDS011;11821;51.456;8.844;2024-02-21T03:49:19;19.23;;;7.30;;
23304;SDS011;11821;51.456;8.844;2024-02-21T03:51:45;9.43;;;5.88;;
23304;SDS011;11821;51.456;8.844;2024-02-21T03:54:12;20.58;;;7.00;;
23304;SDS011;11821;51.456;8.844;2024-02-21T03:56:38;12.65;;;6.72;;
23304;SDS011;11821;51.456;8.844;2024-02-21T03:59:08;12.38;;;7.40;;
23304;SDS011;11821;51.456;8.844;2024-02-21T04:01:35;11.65;;;6.78;;
23304;SDS011;11821;51.456;8.844;2024-02-21T04:04:01;15.25;;;7.38;;
23304;SDS011;11821;51.456;8.844;2024-02-21T04:06:28;10.82;;;6.30;;
23304;SDS011;11821;51.456;8.844;2024-02-21T04:08:54;17.25;;;6.55;;
23304;SDS011;11821;51.456;8.844;2024-02-21T04:11:21;14.02;;;7.05;;
23304;SDS011;11821;51.456;8.844;2024-02-21T04:13:48;16.92;;;6.95;;
23304;SDS011;11821;51.456;8.844;2024-02-21T04:16:15;7.72;;;5.60;;
23304;SDS011;11821;51.456;8.844;2024-02-21T04:18:42;20.20;;;7.53;;
23304;SDS011;11821;51.456;8.844;2024-02-21T04:21:09;9.40;;;5.72;;
23304;SDS011;11821;51.456;8.844;2024-02-21T04:23:36;17.65;;;6.05;;
23304;SDS011;11821;51.456;8.844;2024-02-21T04:26:03;12.27;;;6.18;;
23304;SDS011;11821;51.456;8.844;2024-02-21T04:28:29;10.63;;;6.18;;
23304;SDS011;11821;51.456;8.844;2024-02-21T04:30:56;11.65;;;6.70;;
23304;SDS011;11821;51.456;8.844;2024-02-21T04:33:22;11.35;;;6.20;;
23304;SDS011;11821;51.456;8.844;2024-02-21T04:35:49;8.23;;;5.65;;
23304;SDS011;11821;51.456;8.844;2024-02-21T04:38:15;14.27;;;6.57;;
23304;SDS011;11821;51.456;8.844;2024-02-21T04:40:42;14.30;;;6.10;;
23304;SDS011;11821;51.456;8.844;2024-02-21T04:43:08;10.43;;;6.10;;
23304;SDS011;11821;51.456;8.844;2024-02-21T04:45:35;10.57;;;6.53;;
23304;SDS011;11821;51.456;8.844;2024-02-21T04:48:01;14.32;;;6.40;;
23304;SDS011;11821;51.456;8.844;2024-02-21T04:50:28;9.98;;;5.75;;
23304;SDS011;11821;51.456;8.844;2024-02-21T04:52:55;14.18;;;6.32;;
23304;SDS011;11821;51.456;8.844;2024-02-21T04:55:21;10.65;;;5.80;;
23304;SDS011;11821;51.456;8.844;2024-02-21T04:57:48;12.07;;;5.50;;
23304;SDS011;11821;51.456;8.844;2024-02-21T05:00:14;14.73;;;7.18;;
23304;SDS011;11821;51.456;8.844;2024-02-21T05:02:41;14.25;;;5.70;;
23304;SDS011;11821;51.456;8.844;2024-02-21T05:05:08;19.35;;;6.60;;
23304;SDS011;11821;51.456;8.844;2024-02-21T05:07:34;12.68;;;6.20;;
23304;SDS011;11821;51.456;8.844;2024-02-21T05:10:01;14.55;;;5.95;;
23304;SDS011;11821;51.456;8.844;2024-02-21T05:12:27;13.82;;;6.22;;
23304;SDS011;11821;51.456;8.844;2024-02-21T05:14:55;11.98;;;6.57;;
23304;SDS011;11821;51.456;8.844;2024-02-21T05:17:22;15.65;;;6.20;;
23304;SDS011;11821;51.456;8.844;2024-02-21T05:19:48;13.07;;;6.07;;
23304;SDS011;11821;51.456;8.844;2024-02-21T05:22:15;7.60;;;5.45;;
23304;SDS011;11821;51.456;8.844;2024-02-21T05:24:41;10.05;;;6.07;;
23304;SDS011;11821;51.456;8.844;2024-02-21T05:27:08;13.90;;;7.07;;
23304;SDS011;11821;51.456;8.844;2024-02-21T05:29:34;18.15;;;6.03;;
23304;SDS011;11821;51.456;8.844;2024-02-21T05:32:01;19.27;;;6.90;;
23304;SDS011;11821;51.456;8.844;2024-02-21T05:34:28;12.65;;;7.15;;
23304;SDS011;11821;51.456;8.844;2024-02-21T05:36:54;10.65;;;5.80;;
23304;SDS011;11821;51.456;8.844;2024-02-21T05:39:21;13.30;;;6.20;;
23304;SDS011;11821;51.456;8.844;2024-02-21T05:41:48;14.90;;;6.38;;
23304;SDS011;11821;51.456;8.844;2024-02-21T05:44:16;16.52;;;6.75;;
23304;SDS011;11821;51.456;8.844;2024-02-21T05:46:42;14.43;;;6.68;;
23304;SDS011;11821;51.456;8.844;2024-02-21T05:49:09;16.52;;;6.45;;
23304;SDS011;11821;51.456;8.844;2024-02-21T05:51:36;15.82;;;6.93;;
23304;SDS011;11821;51.456;8.844;2024-02-21T05:54:02;15.02;;;6.55;;
23304;SDS011;11821;51.456;8.844;2024-02-21T05:56:29;18.20;;;6.10;;
23304;SDS011;11821;51.456;8.844;2024-02-21T05:58:55;13.25;;;6.20;;
23304;SDS011;11821;51.456;8.844;2024-02-21T06:01:22;13.00;;;6.38;;
23304;SDS011;11821;51.456;8.844;2024-02-21T06:03:48;14.93;;;6.75;;
23304;SDS011;11821;51.456;8.844;2024-02-21T06:06:15;12.57;;;5.70;;
23304;SDS011;11821;51.456;8.844;2024-02-21T06:08:41;13.15;;;6.13;;
23304;SDS011;11821;51.456;8.844;2024-02-21T06:11:08;13.98;;;7.05;;
23304;SDS011;11821;51.456;8.844;2024-02-21T06:13:38;15.45;;;6.75;;
23304;SDS011;11821;51.456;8.844;2024-02-21T06:16:07;11.35;;;6.65;;
23304;SDS011;11821;51.456;8.844;2024-02-21T06:18:35;12.88;;;6.00;;
23304;SDS011;11821;51.456;8.844;2024-02-21T06:21:02;15.70;;;6.68;;
23304;SDS011;11821;51.456;8.844;2024-02-21T06:23:29;15.25;;;6.97;;
23304;SDS011;11821;51.456;8.844;2024-02-21T06:25:55;15.73;;;6.10;;
23304;SDS011;11821;51.456;8.844;2024-02-21T06:28:22;18.42;;;6.60;;
23304;SDS011;11821;51.456;8.844;2024-02-21T06:30:49;12.60;;;6.10;;
23304;SDS011;11821;51.456;8.844;2024-02-21T06:33:15;9.77;;;6.03;;
23304;SDS011;11821;51.456;8.844;2024-02-21T06:35:42;11.10;;;6.80;;
23304;SDS011;11821;51.456;8.844;2024-02-21T06:38:11;13.70;;;6.72;;
23304;SDS011;11821;51.456;8.844;2024-02-21T06:40:37;11.05;;;6.40;;
23304;SDS011;11821;51.456;8.844;2024-02-21T06:43:05;9.25;;;6.18;;
23304;SDS011;11821;51.456;8.844;2024-02-21T06:45:32;10.73;;;5.28;;
23304;SDS011;11821;51.456;8.844;2024-02-21T06:47:59;9.57;;;6.10;;
23304;SDS011;11821;51.456;8.844;2024-02-21T06:50:25;12.02;;;5.95;;
23304;SDS011;11821;51.456;8.844;2024-02-21T06:52:52;9.77;;;4.18;;
23304;SDS011;11821;51.456;8.844;2024-02-21T06:55:18;14.13;;;5.13;;
23304;SDS011;11821;51.456;8.844;2024-02-21T06:57:45;8.45;;;4.63;;
23304;SDS011;11821;51.456;8.844;2024-02-21T07:00:13;9.32;;;4.75;;
23304;SDS011;11821;51.456;8.844;2024-02-21T07:02:40;9.38;;;4.90;;
23304;SDS011;11821;51.456;8.844;2024-02-21T07:05:07;10.27;;;5.55;;
23304;SDS011;11821;51.456;8.844;2024-02-21T07:07:34;9.00;;;4.72;;
23304;SDS011;11821;51.456;8.844;2024-02-21T07:10:00;8.38;;;4.85;;
23304;SDS011;11821;51.456;8.844;2024-02-21T07:12:27;10.32;;;4.88;;
23304;SDS011;11821;51.456;8.844;2024-02-21T07:14:53;11.00;;;4.50;;
23304;SDS011;11821;51.456;8.844;2024-02-21T07:17:20;12.70;;;5.45;;
23304;SDS011;11821;51.456;8.844;2024-02-21T07:19:47;9.20;;;5.10;;
23304;SDS011;11821;51.456;8.844;2024-02-21T07:22:13;8.43;;;4.75;;
23304;SDS011;11821;51.456;8.844;2024-02-21T07:24:40;9.15;;;4.80;;
23304;SDS011;11821;51.456;8.844;2024-02-21T07:27:06;9.10;;;4.00;;
23304;SDS011;11821;51.456;8.844;2024-02-21T07:29:33;7.85;;;4.38;;
23304;SDS011;11821;51.456;8.844;2024-02-21T07:31:59;11.23;;;4.03;;
23304;SDS011;11821;51.456;8.844;2024-02-21T07:34:26;9.32;;;4.20;;
23304;SDS011;11821;51.456;8.844;2024-02-21T07:36:52;9.05;;;4.57;;
23304;SDS011;11821;51.456;8.844;2024-02-21T07:39:19;11.00;;;4.18;;
23304;SDS011;11821;51.456;8.844;2024-02-21T07:41:45;7.85;;;4.47;;
23304;SDS011;11821;51.456;8.844;2024-02-21T07:44:13;7.43;;;3.88;;
23304;SDS011;11821;51.456;8.844;2024-02-21T07:46:40;7.63;;;4.03;;
23304;SDS011;11821;51.456;8.844;2024-02-21T07:49:06;6.78;;;3.70;;
23304;SDS011;11821;51.456;8.844;2024-02-21T07:51:33;8.88;;;4.03;;
23304;SDS011;11821;51.456;8.844;2024-02-21T07:54:01;8.38;;;4.28;;
23304;SDS011;11821;51.456;8.844;2024-02-21T07:56:29;8.57;;;3.92;;
23304;SDS011;11821;51.456;8.844;2024-02-21T07:58:56;9.98;;;3.85;;
23304;SDS011;11821;51.456;8.844;2024-02-21T08:01:23;6.95;;;4.13;;
23304;SDS011;11821;51.456;8.844;2024-02-21T08:03:49;9.55;;;4.72;;
23304;SDS011;11821;51.456;8.844;2024-02-21T08:06:16;9.75;;;3.60;;
23304;SDS011;11821;51.456;8.844;2024-02-21T08:08:42;7.43;;;4.07;;
23304;SDS011;11821;51.456;8.844;2024-02-21T08:11:09;9.18;;;3.83;;
23304;SDS011;11821;51.456;8.844;2024-02-21T08:13:35;6.50;;;3.70;;
23304;SDS011;11821;51.456;8.844;2024-02-21T08:16:02;9.50;;;3.60;;
23304;SDS011;11821;51.456;8.844;2024-02-21T08:18:29;8.05;;;3.53;;
23304;SDS011;11821;51.456;8.844;2024-02-21T08:20:55;6.55;;;4.28;;
23304;SDS011;11821;51.456;8.844;2024-02-21T08:23:23;10.23;;;5.00;;
23304;SDS011;11821;51.456;8.844;2024-02-21T08:25:50;8.18;;;3.83;;
23304;SDS011;11821;51.456;8.844;2024-02-21T08:28:16;8.23;;;3.22;;
23304;SDS011;11821;51.456;8.844;2024-02-21T08:30:43;9.90;;;4.10;;
23304;SDS011;11821;51.456;8.844;2024-02-21T08:33:18;5.25;;;3.25;;
23304;SDS011;11821;51.456;8.844;2024-02-21T08:35:47;4.47;;;3.05;;
23304;SDS011;11821;51.456;8.844;2024-02-21T08:38:13;7.90;;;3.67;;
23304;SDS011;11821;51.456;8.844;2024-02-21T08:40:40;10.77;;;3.78;;
23304;SDS011;11821;51.456;8.844;2024-02-21T08:43:06;9.52;;;4.38;;
23304;SDS011;11821;51.456;8.844;2024-02-21T08:45:33;9.43;;;4.05;;
23304;SDS011;11821;51.456;8.844;2024-02-21T08:47:59;9.05;;;3.33;;
23304;SDS011;11821;51.456;8.844;2024-02-21T08:50:26;10.30;;;3.47;;
23304;SDS011;11821;51.456;8.844;2024-02-21T08:52:53;4.88;;;2.78;;
23304;SDS011;11821;51.456;8.844;2024-02-21T08:55:20;9.85;;;3.22;;
23304;SDS011;11821;51.456;8.844;2024-02-21T08:57:46;4.78;;;2.97;;
23304;SDS011;11821;51.456;8.844;2024-02-21T09:00:13;9.65;;;3.42;;
23304;SDS011;11821;51.456;8.844;2024-02-21T09:02:40;8.65;;;3.55;;
23304;SDS011;11821;51.456;8.844;2024-02-21T09:05:10;11.13;;;3.60;;
23304;SDS011;11821;51.456;8.844;2024-02-21T09:07:36;10.85;;;3.78;;
23304;SDS011;11821;51.456;8.844;2024-02-21T09:10:03;8.23;;;3.33;;
23304;SDS011;11821;51.456;8.844;2024-02-21T09:12:30;8.30;;;3.00;;
23304;SDS011;11821;51.456;8.844;2024-02-21T09:14:57;8.68;;;3.72;;
23304;SDS011;11821;51.456;8.844;2024-02-21T09:17:23;5.68;;;3.03;;
23304;SDS011;11821;51.456;8.844;2024-02-21T09:19:50;7.53;;;3.60;;
23304;SDS011;11821;51.456;8.844;2024-02-21T09:22:17;5.75;;;3.20;;
23304;SDS011;11821;51.456;8.844;2024-02-21T09:24:44;6.40;;;3.00;;
23304;SDS011;11821;51.456;8.844;2024-02-21T09:27:10;6.20;;;3.03;;
23304;SDS011;11821;51.456;8.844;2024-02-21T09:29:37;7.47;;;4.10;;
23304;SDS011;11821;51.456;8.844;2024-02-21T09:32:05;8.63;;;3.60;;
23304;SDS011;11821;51.456;8.844;2024-02-21T09:34:32;5.82;;;2.22;;
23304;SDS011;11821;51.456;8.844;2024-02-21T09:36:58;7.78;;;3.30;;
23304;SDS011;11821;51.456;8.844;2024-02-21T09:39:25;13.60;;;4.70;;
23304;SDS011;11821;51.456;8.844;2024-02-21T09:41:53;7.95;;;2.85;;
23304;SDS011;11821;51.456;8.844;2024-02-21T09:44:22;6.30;;;2.70;;
23304;SDS011;11821;51.456;8.844;2024-02-21T09:47:03;9.70;;;2.90;;
23304;SDS011;11821;51.456;8.844;2024-02-21T09:52:00;5.25;;;3.15;;
23304;SDS011;11821;51.456;8.844;2024-02-21T09:54:28;4.88;;;2.60;;
23304;SDS011;11821;51.456;8.844;2024-02-21T09:56:59;6.68;;;3.72;;
23304;SDS011;11821;51.456;8.844;2024-02-21T09:59:26;8.60;;;2.63;;
23304;SDS011;11821;51.456;8.844;2024-02-21T10:01:54;5.60;;;2.47;;
23304;SDS011;11821;51.456;8.844;2024-02-21T10:04:21;5.65;;;2.83;;
23304;SDS011;11821;51.456;8.844;2024-02-21T10:06:47;4.82;;;2.63;;
23304;SDS011;11821;51.456;8.844;2024-02-21T10:09:26;6.43;;;2.30;;
23304;SDS011;11821;51.456;8.844;2024-02-21T10:11:54;10.20;;;2.45;;
23304;SDS011;11821;51.456;8.844;2024-02-21T10:14:20;4.95;;;2.80;;
23304;SDS011;11821;51.456;8.844;2024-02-21T10:16:47;8.45;;;3.08;;
23304;SDS011;11821;51.456;8.844;2024-02-21T10:19:18;11.23;;;3.05;;
23304;SDS011;11821;51.456;8.844;2024-02-21T10:22:01;12.48;;;4.13;;
23304;SDS011;11821;51.456;8.844;2024-02-21T10:24:29;5.72;;;2.00;;
23304;SDS011;11821;51.456;8.844;2024-02-21T10:27:05;10.63;;;3.25;;
23304;SDS011;11821;51.456;8.844;2024-02-21T10:29:34;6.75;;;3.47;;
23304;SDS011;11821;51.456;8.844;2024-02-21T10:32:07;5.45;;;2.80;;
23304;SDS011;11821;51.456;8.844;2024-02-21T10:34:35;4.97;;;2.50;;
23304;SDS011;11821;51.456;8.844;2024-02-21T10:37:02;4.30;;;2.22;;
23304;SDS011;11821;51.456;8.844;2024-02-21T10:39:30;6.25;;;2.70;;
23304;SDS011;11821;51.456;8.844;2024-02-21T10:41:57;6.45;;;3.17;;
23304;SDS011;11821;51.456;8.844;2024-02-21T10:44:26;9.93;;;3.47;;
23304;SDS011;11821;51.456;8.844;2024-02-21T10:46:56;9.25;;;3.10;;
23304;SDS011;11821;51.456;8.844;2024-02-21T10:49:23;6.03;;;3.35;;
23304;SDS011;11821;51.456;8.844;2024-02-21T10:52:03;7.13;;;3.08;;
23304;SDS011;11821;51.456;8.844;2024-02-21T10:54:48;7.88;;;3.08;;
23304;SDS011;11821;51.456;8.844;2024-02-21T10:57:18;8.45;;;3.08;;
23304;SDS011;11821;51.456;8.844;2024-02-21T10:59:45;5.75;;;2.75;;
23304;SDS011;11821;51.456;8.844;2024-02-21T11:02:14;8.10;;;3.45;;
23304;SDS011;11821;51.456;8.844;2024-02-21T11:04:41;8.23;;;3.42;;
23304;SDS011;11821;51.456;8.844;2024-02-21T11:07:08;4.60;;;3.22;;
23304;SDS011;11821;51.456;8.844;2024-02-21T11:09:35;5.18;;;2.80;;
23304;SDS011;11821;51.456;8.844;2024-02-21T11:12:05;5.35;;;2.28;;
23304;SDS011;11821;51.456;8.844;2024-02-21T11:14:32;8.45;;;3.08;;
23304;SDS011;11821;51.456;8.844;2024-02-21T11:17:01;7.45;;;2.78;;
23304;SDS011;11821;51.456;8.844;2024-02-21T11:19:29;7.60;;;2.55;;
23304;SDS011;11821;51.456;8.844;2024-02-21T11:21:57;7.22;;;2.83;;
23304;SDS011;11821;51.456;8.844;2024-02-21T11:24:33;4.50;;;2.15;;
23304;SDS011;11821;51.456;8.844;2024-02-21T11:32:34;3.83;;;2.08;;
23304;SDS011;11821;51.456;8.844;2024-02-21T11:35:02;7.95;;;2.20;;
23304;SDS011;11821;51.456;8.844;2024-02-21T11:37:30;7.05;;;2.40;;
23304;SDS011;11821;51.456;8.844;2024-02-21T11:40:02;9.70;;;2.40;;
23304;SDS011;11821;51.456;8.844;2024-02-21T11:42:29;9.15;;;2.70;;
23304;SDS011;11821;51.456;8.844;2024-02-21T11:44:56;2.17;;;1.70;;
23304;SDS011;11821;51.456;8.844;2024-02-21T11:47:23;6.32;;;1.90;;
23304;SDS011;11821;51.456;8.844;2024-02-21T11:49:50;3.33;;;1.85;;
23304;SDS011;11821;51.456;8.844;2024-02-21T11:52:22;6.78;;;2.25;;
23304;SDS011;11821;51.456;8.844;2024-02-21T11:54:53;5.22;;;2.33;;
23304;SDS011;11821;51.456;8.844;2024-02-21T11:57:21;4.57;;;2.15;;
23304;SDS011;11821;51.456;8.844;2024-02-21T11:59:48;7.45;;;2.08;;
23304;SDS011;11821;51.456;8.844;2024-02-21T12:02:16;4.90;;;2.08;;
23304;SDS011;11821;51.456;8.844;2024-02-21T12:04:44;5.28;;;2.03;;
23304;SDS011;11821;51.456;8.844;2024-02-21T12:07:10;4.53;;;2.00;;
23304;SDS011;11821;51.456;8.844;2024-02-21T12:09:37;4.25;;;1.80;;
23304;SDS011;11821;51.456;8.844;2024-02-21T12:12:04;6.00;;;2.90;;
23304;SDS011;11821;51.456;8.844;2024-02-21T12:14:32;5.95;;;2.42;;
23304;SDS011;11821;51.456;8.844;2024-02-21T12:16:59;4.18;;;2.55;;
23304;SDS011;11821;51.456;8.844;2024-02-21T12:19:28;8.27;;;2.55;;
23304;SDS011;11821;51.456;8.844;2024-02-21T12:21:55;4.13;;;1.85;;
23304;SDS011;11821;51.456;8.844;2024-02-21T12:24:24;6.25;;;2.47;;
23304;SDS011;11821;51.456;8.844;2024-02-21T12:26:51;6.03;;;2.25;;
23304;SDS011;11821;51.456;8.844;2024-02-21T12:29:18;8.05;;;3.03;;
23304;SDS011;11821;51.456;8.844;2024-02-21T12:31:45;9.43;;;4.75;;
23304;SDS011;11821;51.456;8.844;2024-02-21T12:34:11;10.60;;;3.55;;
23304;SDS011;11821;51.456;8.844;2024-02-21T12:36:41;9.75;;;2.92;;
23304;SDS011;11821;51.456;8.844;2024-02-21T12:39:09;10.57;;;3.05;;
23304;SDS011;11821;51.456;8.844;2024-02-21T12:41:36;7.00;;;2.78;;
23304;SDS011;11821;51.456;8.844;2024-02-21T12:44:10;19.90;;;5.35;;
23304;SDS011;11821;51.456;8.844;2024-02-21T12:46:37;7.60;;;2.55;;
23304;SDS011;11821;51.456;8.844;2024-02-21T12:49:05;8.85;;;4.00;;
23304;SDS011;11821;51.456;8.844;2024-02-21T12:51:33;11.05;;;2.88;;
23304;SDS011;11821;51.456;8.844;2024-02-21T12:54:00;9.82;;;3.60;;
23304;SDS011;11821;51.456;8.844;2024-02-21T12:56:30;8.45;;;2.78;;
23304;SDS011;11821;51.456;8.844;2024-02-21T12:58:57;9.98;;;3.60;;
23304;SDS011;11821;51.456;8.844;2024-02-21T13:01:24;10.18;;;3.05;;
23304;SDS011;11821;51.456;8.844;2024-02-21T13:03:51;12.07;;;3.70;;
23304;SDS011;11821;51.456;8.844;2024-02-21T13:06:18;6.35;;;2.70;;
23304;SDS011;11821;51.456;8.844;2024-02-21T13:08:44;7.90;;;2.40;;
23304;SDS011;11821;51.456;8.844;2024-02-21T13:11:12;5.10;;;2.40;;
23304;SDS011;11821;51.456;8.844;2024-02-21T13:13:38;12.70;;;3.83;;
23304;SDS011;11821;51.456;8.844;2024-02-21T13:16:05;7.72;;;3.05;;
23304;SDS011;11821;51.456;8.844;2024-02-21T13:18:31;10.48;;;3.30;;
23304;SDS011;11821;51.456;8.844;2024-02-21T13:20:58;10.30;;;3.63;;
23304;SDS011;11821;51.456;8.844;2024-02-21T13:23:25;9.75;;;2.88;;
23304;SDS011;11821;51.456;8.844;2024-02-21T13:25:51;10.45;;;4.18;;
23304;SDS011;11821;51.456;8.844;2024-02-21T13:28:18;15.90;;;4.80;;
23304;SDS011;11821;51.456;8.844;2024-02-21T13:30:44;12.80;;;4.28;;
23304;SDS011;11821;51.456;8.844;2024-02-21T13:33:11;9.43;;;2.65;;
23304;SDS011;11821;51.456;8.844;2024-02-21T13:35:37;7.65;;;2.97;;
23304;SDS011;11821;51.456;8.844;2024-02-21T13:38:04;11.93;;;4.68;;
23304;SDS011;11821;51.456;8.844;2024-02-21T13:40:31;11.65;;;4.03;;
23304;SDS011;11821;51.456;8.844;2024-02-21T13:42:58;7.90;;;2.88;;
23304;SDS011;11821;51.456;8.844;2024-02-21T13:45:24;23.08;;;6.82;;
23304;SDS011;11821;51.456;8.844;2024-02-21T13:47:51;8.10;;;2.70;;
23304;SDS011;11821;51.456;8.844;2024-02-21T13:50:17;12.93;;;3.70;;
23304;SDS011;11821;51.456;8.844;2024-02-21T13:52:44;11.82;;;3.40;;
23304;SDS011;11821;51.456;8.844;2024-02-21T13:55:12;9.40;;;3.15;;
23304;SDS011;11821;51.456;8.844;2024-02-21T13:57:38;15.15;;;4.97;;
23304;SDS011;11821;51.456;8.844;2024-02-21T14:00:05;9.38;;;3.33;;
23304;SDS011;11821;51.456;8.844;2024-02-21T14:02:38;8.07;;;3.03;;
23304;SDS011;11821;51.456;8.844;2024-02-21T14:05:05;18.70;;;6.35;;
23304;SDS011;11821;51.456;8.844;2024-02-21T14:07:32;10.93;;;3.42;;
23304;SDS011;11821;51.456;8.844;2024-02-21T14:09:59;12.23;;;3.55;;
23304;SDS011;11821;51.456;8.844;2024-02-21T14:12:25;11.70;;;3.75;;
23304;SDS011;11821;51.456;8.844;2024-02-21T14:14:52;8.35;;;3.90;;
23304;SDS011;11821;51.456;8.844;2024-02-21T14:17:18;13.82;;;3.67;;
23304;SDS011;11821;51.456;8.844;2024-02-21T14:19:45;8.05;;;2.97;;
23304;SDS011;11821;51.456;8.844;2024-02-21T14:22:12;15.50;;;5.03;;
23304;SDS011;11821;51.456;8.844;2024-02-21T14:24:38;10.30;;;3.95;;
23304;SDS011;11821;51.456;8.844;2024-02-21T14:27:05;12.85;;;4.10;;
23304;SDS011;11821;51.456;8.844;2024-02-21T14:29:32;10.25;;;3.80;;
23304;SDS011;11821;51.456;8.844;2024-02-21T14:31:58;10.73;;;2.85;;
23304;SDS011;11821;51.456;8.844;2024-02-21T14:34:25;7.97;;;3.40;;
23304;SDS011;11821;51.456;8.844;2024-02-21T14:36:52;11.23;;;4.38;;
23304;SDS011;11821;51.456;8.844;2024-02-21T14:39:18;9.98;;;4.10;;
23304;SDS011;11821;51.456;8.844;2024-02-21T14:41:45;12.98;;;4.25;;
23304;SDS011;11821;51.456;8.844;2024-02-21T14:44:11;12.52;;;3.88;;
23304;SDS011;11821;51.456;8.844;2024-02-21T14:46:39;16.67;;;6.45;;
23304;SDS011;11821;51.456;8.844;2024-02-21T14:49:06;7.30;;;2.85;;
23304;SDS011;11821;51.456;8.844;2024-02-21T14:51:32;10.48;;;4.07;;